Pagina principale
METAR-TAF:

METAR-TAF

Aeroporti :

Penn Valley Airport

Selinsgrove, Pennsylvania, Stati Uniti

latitudine: 40-49-09N, longitudine: 076-51-58W, altezza: 137 m

Osservazione

Il bollettino è stato emesso 7 minuti fa, alle 07:53 UTC
Vento calmo
Temperature 9°C
Umidità 100%
Pressione 1021 hPa
Visibilità: 1.2 km
foschia

METAR: KSEG 240753Z AUTO 00000KT 3/4SM BR VV002 09/09 A3014 RMK AO2 SLP204 T00940089

Ora: 04:00 (08:00 UTC)


TAF: mancante

Osservazioni e previsioni meteorologiche di più di 4000 aeroporti (messaggi METAR e TAF).

Le stazioni disponibili sono rappresentate dai dischi gialli e rossi sulla carta.

Puntare il mouse per vedere il nome della stazione.

Clicca sopra per visualizzare le osservazioni e previsioni meteorologiche.

Per cambiare la mappa : fare clic sui pulsanti verdi con una croce nera per ingrandire, il pulsante verde con un trattino per diminuire, o sulla freccia verde per le mappe adiacenti.


METAR-TAF: